Tiempo atmosférico en la estación meteorológica de Vinaròs, Castelló/Castellón (110 m.)



Fecha
DESCASC
Temp. máxima en grados centígrados (hora)
DESCASC
Temp. mínima en grados centígrados (hora)
DESCASC
Temp. media en grados centígrados
DESCASC
Racha de viento máxima en m/sg (hora)
DESCASC
Velocidad máxima media en intervalos de 10 minutos(hora)
DESCASC
Precipitaciones diarias en mm
DESCASC
Precipitaciones de 00:00 a 06:00 en mm
DESCASC
Precipitaciones de 06:00 a 12:00 en mm
DESCASC
Precipitaciones de 12:00 a 18:00 en mm
DESCASC
Precipitaciones de 18:00 a 24:00 en mm
DESCASC
17-09-2020 29.5 (13:00) 18.5 (05:00) 24 8.33 (15:50) 5 (16:30) 0 0 0 0 0
16-09-2020 30.3 (15:00) 17.5 (07:10) 23.9 6.94 (15:40) 4.17 (17:10) 0 0 0 0 0
15-09-2020 31.3 (14:50) 19 (03:20) 25.1 7.5 (13:20) 4.44 (15:00) 0 0 0 0 0
14-09-2020 30.8 (13:30) 16.6 (00:00) 23.7 6.67 (15:00) 3.89 (15:10) 0 0 0 0 0
13-09-2020 33.1 (15:30) 16.2 (00:00) 24.6 6.39 (15:50) 3.89 (16:10) 0 0 0 0 0
12-09-2020 31.2 (12:30) 16.8 (00:00) 24 6.94 (14:00) 3.89 (13:50) 0 0 0 0 0
11-09-2020 30.6 (14:20) 16.6 (00:00) 23.6 7.5 (15:20) 3.61 (14:40) 0 0 0 0 0
10-09-2020 29.5 (15:20) 17.2 (00:00) 23.4 7.22 (13:50) 4.17 (14:10) 0 0 0 0 0
09-09-2020 27.2 (15:00) 17.1 (00:00) 22.2 6.67 (15:20) 4.17 (14:10) 0 0 0 0 0
08-09-2020 28.6 (15:10) 14.6 (00:00) 21.6 9.72 (16:00) 5.28 (15:30) 0 0 0 0 0
07-09-2020 26.8 (15:50) 17.1 (02:20) 21.9 7.78 (16:50) 4.44 (14:50) 0.3 0.3 0 0 0
06-09-2020 30.2 (12:00) 17.7 (00:00) 24 9.17 (14:20) 4.72 (18:20) 0.1 0 0 0 0.1
05-09-2020 30.4 (14:30) 16.1 (00:00) 23.3 7.22 (15:20) 3.61 (15:00) 0 0 0 0 0
04-09-2020 29.8 (14:10) 15.9 (00:00) 22.8 9.17 (15:30) 6.11 (16:30) 0 0 0 0 0
03-09-2020 29.3 (13:00) 14.7 (00:00) 22 9.72 (17:00) 5.28 (17:50) 0 0 0 0 0
02-09-2020 28.2 (14:20) 16.4 (00:00) 22.3 8.06 (15:10) 4.17 (14:50) 0 0 0 0 0
01-09-2020 29.1 (15:50) 15.2 (00:00) 22.2 6.39 (14:50) 3.33 (15:50) 0 0 0 0 0
31-08-2020 27.2 (14:20) 14.5 (00:00) 20.9 8.33 (14:50) 4.17 (13:40) 0 0 0 0 0
30-08-2020 28.5 (16:30) 15.3 (00:00) 21.9 11.94 (01:20) 6.39 (01:20) 0.1 0 0.1 0 0
29-08-2020 27.2 (12:40) 18.8 (00:00) 23 10.28 (21:50) 5 (21:50) 0.2 0.1 0.1 0 0
28-08-2020 32 (14:40) 21.5 (00:00) 26.8 9.44 (15:20) 4.72 (15:00) 0.5 0 0 0 0.5
27-08-2020 32.6 (15:40) 22 (00:00) 27.3 8.89 (15:40) 4.72 (16:10) 0 0 0 0 0
26-08-2020 32.2 (15:30) 21.9 (00:00) 27.1 7.5 (15:30) 3.61 (15:00) 0 0 0 0 0
25-08-2020 32.7 (14:50) 21.6 (00:00) 27.2 8.33 (16:50) 5 (17:20) 0 0 0 0 0
24-08-2020 32.7 (12:40) 16.9 (00:00) 24.8 8.61 (14:30) 4.17 (13:40) 0 0 0 0 0
23-08-2020 28.8 (15:10) 21.8 (00:00) 25.3 5.83 (18:20) 3.61 (16:50) 0 0 0 0 0
22-08-2020 33.5 (12:50) 21.8 (00:00) 27.6 8.89 (14:00) 5.28 (13:20) 0 0 0 0 0
21-08-2020 33.6 (23:00) 20.9 (00:00) 27.2 6.94 (14:10) 3.61 (13:30) 0 0 0 0 0

Gráficas

Temp. máximas Temp. mínimas Temp. medias Precipitaciones Rachas de viento máximas Velocidades máximas media en intervalos de 10 minutos

Datos horarios

Fecha y hora oficial Temperatura (ºC) Velocidad del viento (km/h) Dirección del viento Racha (km/h) Dirección de racha Precipitación (mm) Presión (hPa) Tendencia (hPa) Humedad (%)
2020-09-19 23:00:00 22 8 Norte 12 Nordeste 0 -- -- 64
2020-09-19 22:00:00 22.4 9 Nordeste 14 Nordeste 0 -- -- 63
2020-09-19 21:00:00 23.2 8 Nordeste 14 Nordeste 0 -- -- 54
2020-09-19 20:00:00 24.2 8 Nordeste 20 Nordeste 0 -- -- 50
2020-09-19 19:00:00 25.1 9 Este 16 Nordeste 0 -- -- 45
2020-09-19 18:00:00 28.5 6 Sudeste 17 Sur 0 -- -- 34
2020-09-19 17:00:00 29.4 8 Sudeste 19 Sur 0 -- -- 35
2020-09-19 16:00:00 28.3 12 Sur 25 Sudeste 0 -- -- 38
2020-09-19 15:00:00 28.8 10 Sur 21 Sur 0 -- -- 38
2020-09-19 14:00:00 28.3 9 Sur 21 Sudeste 0 -- -- 44
2020-09-19 13:00:00 26.6 8 Sudeste 19 Sudeste 0 -- -- 48
2020-09-19 12:00:00 26.9 7 Sur 14 Sudeste 0 -- -- 45
2020-09-19 11:00:00 26.1 0 Calma 10 Sudeste 0 -- -- 47
2020-09-19 10:00:00 25.4 3 Noroeste 7 Nordeste 0 -- -- 48
2020-09-19 09:00:00 21.8 4 Norte 12 Norte 0 -- -- 64
2020-09-19 08:00:00 17.9 6 Norte 11 Norte 0 -- -- 79
2020-09-19 07:00:00 17.5 6 Norte 11 Noroeste 0 -- -- 81
2020-09-19 06:00:00 18.8 4 Nordeste 14 Norte 0 -- -- 81
2020-09-19 05:00:00 19 9 Norte 13 Norte 0 -- -- 79
2020-09-19 04:00:00 19.4 4 Norte 7 Nordeste 0.1 -- -- 79
2020-09-19 03:00:00 19.9 5 Nordeste 10 Nordeste 0 -- -- 80
2020-09-19 02:00:00 19.7 2 Norte 6 Norte 0 -- -- 80
2020-09-19 01:00:00 19.6 4 Norte 8 Norte 0 -- -- 80
2020-09-19 00:00:00 19.6 3 Norte 10 Oeste 0 -- -- 81
2020-09-18 23:00:00 20.4 5 Oeste 17 Noroeste 0 -- -- 79
2020-09-18 22:00:00 21.2 9 Noroeste 27 Este 0 -- -- 78
2020-09-18 21:00:00 21.1 5 Norte 10 Norte 0 -- -- 79
2020-09-18 20:00:00 22.4 2 Sudeste 7 Sudeste 0 -- -- 70
2020-09-18 19:00:00 23.8 6 Sudeste 14 Sudoeste 0 -- -- 62
2020-09-18 18:00:00 24.1 6 Sudoeste 17 Sur 0 -- -- 61
2020-09-18 17:00:00 23.6 9 Sur 21 Sur 0 -- -- 62
2020-09-18 16:00:00 26.1 13 Sur 27 Sur 0 -- -- 56
2020-09-18 15:00:00 24.2 12 Sudeste 21 Sudeste 0 -- -- 63
2020-09-18 14:00:00 23.7 8 Sur 14 Sur 0 -- -- 67
2020-09-18 13:00:00 23.9 2 Sur 12 Sur 0 -- -- 62
2020-09-18 12:00:00 21.6 6 Sur 15 Nordeste 0 -- -- 82
2020-09-18 11:00:00 20.1 5 Nordeste 8 Nordeste 0 -- -- 82
2020-09-18 10:00:00 19.1 2 Sudoeste 16 Sur 0 -- -- 82
2020-09-18 09:00:00 18.4 3 Sudoeste 31 Oeste 0 -- -- 82
2020-09-18 08:00:00 21.4 0 Calma 8 Nordeste 0 -- -- 64
2020-09-18 07:00:00 21.5 5 Nordeste 10 Nordeste 0 -- -- 62
2020-09-18 06:00:00 20.8 5 Nordeste 8 Nordeste 0 -- -- 65
2020-09-18 05:00:00 20 5 Nordeste 9 Norte 0 -- -- 72
2020-09-18 04:00:00 19.2 5 Nordeste 12 Norte 0 -- -- 74
2020-09-18 03:00:00 19.7 4 Norte 8 Norte 0 -- -- 79
2020-09-18 02:00:00 20.5 5 Nordeste 9 Nordeste 0 -- -- 79
2020-09-18 01:00:00 20.5 4 Norte 8 Norte 0 -- -- 78
2020-09-18 00:00:00 20.9 4 Nordeste 7 Norte 0 -- -- 79
2020-09-17 23:00:00 21.8 0 Calma 8 Sudoeste 0 -- -- 79
2020-09-17 22:00:00 22.5 6 Sur 8 Sur 0 -- -- 79
2020-09-17 21:00:00 23.6 6 Sudoeste 15 Sudoeste 0 -- -- 77
2020-09-17 20:00:00 24.8 9 Sur 23 Sur 0 -- -- 70
2020-09-17 19:00:00 25.5 10 Sur 25 Sudoeste 0 -- -- 67
2020-09-17 18:00:00 27.3 14 Sur 27 Sur 0 -- -- 57
2020-09-17 17:00:00 27.6 14 Sur 30 Sudoeste 0 -- -- 59
2020-09-17 16:00:00 26 15 Sudoeste 30 Sur 0 -- -- 60
2020-09-17 15:00:00 28.1 13 Sur 28 Sur 0 -- -- 52
2020-09-17 14:00:00 28 13 Sur 23 Sur 0 -- -- 47
2020-09-17 13:00:00 28.6 9 Sur 19 Sur 0 -- -- 45
2020-09-17 12:00:00 25.4 8 Sudoeste 12 Sur 0 -- -- 48
2020-09-17 11:00:00 23.7 0 Calma 6 Nordeste 0 -- -- 51
2020-09-17 10:00:00 21.9 3 Nordeste 8 Nordeste 0 -- -- 57
2020-09-17 09:00:00 20.8 4 Nordeste 8 Nordeste 0 -- -- 60
2020-09-17 08:00:00 19.7 4 Nordeste 9 Norte 0 -- -- 65
2020-09-17 07:00:00 19.4 5 Nordeste 12 Norte 0 -- -- 73
2020-09-17 06:00:00 19.5 6 Norte 11 Norte 0 -- -- 70
2020-09-17 05:00:00 18.5 6 Nordeste 11 Norte 0 -- -- 77
2020-09-17 04:00:00 18.9 4 Nordeste 8 Norte 0 -- -- 79
2020-09-17 03:00:00 19.4 4 Norte 6 Nordeste 0 -- -- 80
2020-09-17 02:00:00 20.1 4 Norte 8 Norte 0 -- -- 79
2020-09-17 01:00:00 20.9 4 Norte 7 Nordeste 0 -- -- 79
2020-09-17 00:00:00 21.2 4 Nordeste 6 Este 0 -- -- 79
2020-09-16 23:00:00 22.2 4 Noroeste 5 Norte 0 -- -- 77
2020-09-16 22:00:00 23 5 Sur 10 Sudoeste 0 -- -- 77
2020-09-16 21:00:00 23.4 5 Sur 10 Sudoeste 0 -- -- 73
2020-09-16 20:00:00 24.5 6 Sur 15 Sudoeste 0 -- -- 66
2020-09-16 19:00:00 26 11 Sur 19 Sur 0 -- -- 52
2020-09-16 18:00:00 26.6 10 Sur 24 Sur 0 -- -- 52
2020-09-16 17:00:00 28.5 13 Sur 24 Sur 0 -- -- 50
2020-09-16 16:00:00 29 13 Sur 25 Sur 0 -- -- 45
2020-09-16 15:00:00 30 13 Sur 24 Sudeste 0 -- -- 45
2020-09-16 14:00:00 28.9 11 Sur 21 Sur 0 -- -- 45
2020-09-16 13:00:00 28.3 9 Sur 18 Sur 0 -- -- 48
2020-09-16 12:00:00 28.4 9 Sur 18 Sur 0 -- -- 44
2020-09-16 11:00:00 27.4 3 Sudoeste 10 Sur 0 -- -- 40
2020-09-16 10:00:00 25.7 5 Nordeste 9 Nordeste 0 -- -- 56
2020-09-16 09:00:00 21.9 5 Nordeste 9 Norte 0 -- -- 68
2020-09-16 08:00:00 17.9 6 Norte 9 Norte 0 -- -- 76
2020-09-16 07:00:00 18.5 6 Norte 10 Norte 0 -- -- 73
2020-09-16 06:00:00 18.4 4 Norte 9 Norte 0 -- -- 76
2020-09-16 05:00:00 18.8 4 Norte 9 Norte 0 -- -- 75
2020-09-16 04:00:00 19.3 6 Norte 10 Norte 0 -- -- 76
2020-09-16 03:00:00 20.4 5 Nordeste 8 Norte 0 -- -- 75
2020-09-16 02:00:00 21.3 3 Nordeste 6 Norte 0 -- -- 79
2020-09-16 01:00:00 22.4 0 Calma 5 Oeste 0 -- -- 77
2020-09-16 00:00:00 22.6 3 Sudoeste 8 Sudoeste 0 -- -- 77
2020-09-15 23:00:00 23.9 5 Sur 10 Sur 0 -- -- 76
2020-09-15 22:00:00 24.4 5 Sur 16 Sur 0 -- -- 74
2020-09-15 21:00:00 24.5 10 Sur 15 Sur 0 -- -- 69
2020-09-15 20:00:00 25 6 Sur 15 Sudoeste 0 -- -- 65
2020-09-15 19:00:00 25.8 7 Sur 18 Sudoeste 0 -- -- 52
2020-09-15 18:00:00 26.5 15 Sudoeste 23 Sudoeste 0 -- -- 47
2020-09-15 17:00:00 27.9 10 Sur 25 Sur 0 -- -- 44
2020-09-15 16:00:00 30.1 14 Sur 27 Sur 0 -- -- 40
2020-09-15 15:00:00 30 16 Sur 26 Sudoeste 0 -- -- 38
2020-09-15 14:00:00 29.7 15 Sur 27 Sur 0 -- -- 37
2020-09-15 13:00:00 29.8 11 Sur 24 Sur 0 -- -- 37
2020-09-15 12:00:00 30 12 Sur 22 Sur 0 -- -- 40
2020-09-15 11:00:00 27.4 9 Oeste 15 Oeste 0 -- -- 39
2020-09-15 10:00:00 25.1 4 Noroeste 10 Noroeste 0 -- -- 43
2020-09-15 09:00:00 21.8 5 Norte 10 Nordeste 0 -- -- 61
2020-09-15 08:00:00 20.3 4 Norte 10 Nordeste 0 -- -- 70
2020-09-15 07:00:00 20.2 5 Norte 15 Oeste 0 -- -- 70
2020-09-15 06:00:00 19.7 2 Sudoeste 16 Nordeste 0 -- -- 76
2020-09-15 05:00:00 19.9 7 Nordeste 11 Nordeste 0 -- -- 75
2020-09-15 04:00:00 19.7 5 Nordeste 9 Nordeste 0 -- -- 76
2020-09-15 03:00:00 19.3 5 Nordeste 7 Nordeste 0 -- -- 77
2020-09-15 02:00:00 19.6 5 Norte 8 Nordeste 0 -- -- 79
2020-09-15 01:00:00 19.7 5 Nordeste 6 Nordeste 0 -- -- 79
2020-09-15 00:00:00 20.5 3 Norte 6 Oeste 0 -- -- 79
2020-09-14 23:00:00 21.5 6 Oeste 8 Oeste 0 -- -- 79
2020-09-14 22:00:00 22.5 6 Sur 9 Sur 0 -- -- 79
2020-09-14 21:00:00 23.3 3 Sudoeste 12 Sur 0 -- -- 75
2020-09-14 20:00:00 24.8 6 Sur 15 Sur 0 -- -- 66
2020-09-14 19:00:00 26.1 9 Sudoeste 17 Sur 0 -- -- 59
2020-09-14 18:00:00 27.2 10 Sur 19 Sur 0 -- -- 44
2020-09-14 17:00:00 29.2 10 Sur 21 Sur 0 -- -- 41
2020-09-14 16:00:00 27.4 11 Sur 22 Sur 0 -- -- 47
2020-09-14 15:00:00 29.8 13 Sur 24 Sur 0 -- -- 40
2020-09-14 14:00:00 29.5 11 Sur 21 Sur 0 -- -- 38
2020-09-14 13:00:00 29 10 Sur 21 Sur 0 -- -- 41
2020-09-14 12:00:00 28.9 9 Sudeste 16 Sudeste 0 -- -- 44
2020-09-14 11:00:00 27.9 3 Sudeste 12 Sur 0 -- -- 48
2020-09-14 10:00:00 26.7 2 Nordeste 9 Norte 0 -- -- 47
2020-09-14 09:00:00 22.3 5 Norte 9 Nordeste 0 -- -- 66
2020-09-14 08:00:00 17.7 5 Norte 10 Norte 0 -- -- 72
2020-09-14 07:00:00 17.9 4 Norte 13 Norte 0 -- -- 81
2020-09-14 06:00:00 17 5 Nordeste 10 Nordeste 0 -- -- 65
2020-09-14 05:00:00 17.5 4 Nordeste 12 Norte 0 -- -- 62
2020-09-14 04:00:00 18.3 5 Norte 10 Nordeste 0 -- -- 63
2020-09-14 03:00:00 18.8 8 Nordeste 13 Norte 0 -- -- 57
2020-09-14 02:00:00 19.6 8 Norte 13 Norte 0 -- -- 54
2020-09-14 01:00:00 19.7 4 Nordeste 10 Norte 0 -- -- 57
2020-09-14 00:00:00 20.1 6 Nordeste 9 Norte 0 -- -- 57
2020-09-13 23:00:00 21.4 4 Norte 6 Norte 0 -- -- 76
2020-09-13 22:00:00 22.8 0 Calma 8 Sur 0 -- -- 73
2020-09-13 21:00:00 23.7 5 Sur 10 Sur 0 -- -- 69
2020-09-13 20:00:00 25.6 5 Sur 16 Sur 0 -- -- 51
2020-09-13 19:00:00 29.2 8 Sur 18 Sur 0 -- -- 34
2020-09-13 18:00:00 29.9 10 Sudoeste 21 Sur 0 -- -- 33
2020-09-13 17:00:00 31.5 10 Sur 22 Sur 0 -- -- 32
2020-09-13 16:00:00 31.2 12 Sur 23 Sudoeste 0 -- -- 31
2020-09-13 15:00:00 31.5 12 Sur 22 Sur 0 -- -- 31
2020-09-13 14:00:00 32.1 11 Sur 21 Sur 0 -- -- 31
2020-09-13 13:00:00 31.5 10 Sur 19 Sur 0 -- -- 35
2020-09-13 12:00:00 30.2 8 Sur 16 Sur 0 -- -- 36
2020-09-13 11:00:00 30.3 0 Calma 10 Norte 0 -- -- 30
2020-09-13 10:00:00 26.3 6 Nordeste 12 Nordeste 0 -- -- 43
2020-09-13 09:00:00 22.7 6 Norte 14 Norte 0 -- -- 49
2020-09-13 08:00:00 17.6 8 Norte 13 Nordeste 0 -- -- 67
2020-09-13 07:00:00 17 4 Nordeste 12 Norte 0 -- -- 67
2020-09-13 06:00:00 17.1 4 Norte 12 Noroeste 0 -- -- 67
2020-09-13 05:00:00 18.5 5 Norte 13 Norte 0 -- -- 60
2020-09-13 04:00:00 19.6 8 Norte 12 Norte 0 -- -- 58
2020-09-13 03:00:00 20.1 6 Nordeste 11 Norte 0 -- -- 58
2020-09-13 02:00:00 20.3 5 Nordeste 10 Nordeste 0 -- -- 60
2020-09-13 01:00:00 20.9 7 Norte 11 Norte 0 -- -- 60
2020-09-13 00:00:00 21 6 Norte 11 Norte 0 -- -- 67
2020-09-12 23:00:00 22 3 Norte 7 Nordeste 0 -- -- 69
2020-09-12 22:00:00 21.6 3 Nordeste 5 Sudeste 0 -- -- 74
2020-09-12 21:00:00 23.2 2 Sur 10 Sur 0 -- -- 71
2020-09-12 20:00:00 25 6 Sur 17 Sur 0 -- -- 59
2020-09-12 19:00:00 27.2 10 Sur 18 Sur 0 -- -- 45
2020-09-12 18:00:00 28.1 12 Sur 22 Sur 0 -- -- 40
2020-09-12 17:00:00 29.9 12 Sur 23 Sudeste 0 -- -- 35
2020-09-12 16:00:00 29.7 12 Sur 24 Sur 0 -- -- 37
2020-09-12 15:00:00 30 13 Sur 25 Sudeste 0 -- -- 36
2020-09-12 14:00:00 30.6 13 Sur 25 Sudeste 0 -- -- 37
2020-09-12 13:00:00 30.2 11 Sur 24 Sudeste 0 -- -- 36
2020-09-12 12:00:00 29.6 4 Sudeste 12 Este 0 -- -- 33
2020-09-12 11:00:00 28.6 4 Nordeste 9 Nordeste 0 -- -- 35
2020-09-12 10:00:00 26.1 5 Norte 10 Nordeste 0 -- -- 47
2020-09-12 09:00:00 21.7 6 Norte 13 Norte 0 -- -- 55
2020-09-12 08:00:00 17.2 8 Norte 13 Noroeste 0 -- -- 67
2020-09-12 07:00:00 17.5 9 Nordeste 12 Nordeste 0 -- -- 64
2020-09-12 06:00:00 17.2 7 Norte 10 Nordeste 0 -- -- 66
2020-09-12 05:00:00 17.1 6 Nordeste 9 Norte 0 -- -- 67
2020-09-12 04:00:00 18 6 Norte 12 Norte 0 -- -- 64
2020-09-12 03:00:00 18.2 7 Noroeste 10 Noroeste 0 -- -- 79
2020-09-12 02:00:00 18.4 7 Noroeste 11 Noroeste 0 -- -- 78
2020-09-12 01:00:00 20.1 8 Norte 10 Norte 0 -- -- 76
2020-09-12 00:00:00 20.1 4 Norte 6 Norte 0 -- -- 75
2020-09-11 23:00:00 21.8 3 Sur 8 Sur 0 -- -- 71
2020-09-11 22:00:00 22.4 4 Sudeste 7 Sudeste 0 -- -- 67
2020-09-11 21:00:00 22.9 5 Sudeste 12 Sur 0 -- -- 63
2020-09-11 20:00:00 24.8 6 Sur 17 Sur 0 -- -- 51
2020-09-11 19:00:00 27.3 9 Sur 18 Sur 0 -- -- 34
2020-09-11 18:00:00 28.1 9 Sur 18 Sur 0 -- -- 31
2020-09-11 17:00:00 29.6 10 Sur 21 Sur 0 -- -- 30
2020-09-11 16:00:00 29.4 12 Sur 27 Sudoeste 0 -- -- 32
2020-09-11 15:00:00 29.6 10 Sur 24 Sudoeste 0 -- -- 31
2020-09-11 14:00:00 28.8 10 Sur 23 Sudeste 0 -- -- 31
2020-09-11 13:00:00 28.7 12 Sur 21 Sur 0 -- -- 33
2020-09-11 12:00:00 28.4 9 Sudeste 19 Sudeste 0 -- -- 34
2020-09-11 11:00:00 27.8 10 Sudeste 17 Sudeste 0 -- -- 35
2020-09-11 10:00:00 25.3 8 Nordeste 13 Nordeste 0 -- -- 40
2020-09-11 09:00:00 23.3 5 Norte 12 Norte 0 -- -- 48
2020-09-11 08:00:00 16.8 5 Nordeste 14 Nordeste 0 -- -- 71
2020-09-11 07:00:00 17.4 8 Nordeste 13 Norte 0 -- -- 74
2020-09-11 06:00:00 18.3 7 Nordeste 12 Nordeste 0 -- -- 73
2020-09-11 05:00:00 18.2 8 Norte 15 Norte 0 -- -- 71
2020-09-11 04:00:00 18.3 5 Nordeste 9 Nordeste 0 -- -- 72
2020-09-11 03:00:00 18.6 6 Nordeste 8 Nordeste 0 -- -- 71
2020-09-11 02:00:00 19.4 5 Norte 12 Noroeste 0 -- -- 70
2020-09-11 01:00:00 20 5 Noroeste 9 Norte 0 -- -- 73
2020-09-11 00:00:00 21.5 5 Noroeste 7 Noroeste 0 -- -- 70
2020-09-10 23:00:00 22.1 5 Sur 10 Sur 0 -- -- 69
2020-09-10 22:00:00 21.9 6 Sur 13 Sur 0 -- -- 63
2020-09-10 21:00:00 22.3 5 Sudoeste 12 Sur 0 -- -- 54
2020-09-10 20:00:00 24.2 9 Sur 20 Sudoeste 0 -- -- 43
2020-09-10 19:00:00 26 11 Sudoeste 22 Sudoeste 0 -- -- 38
2020-09-10 18:00:00 26.6 13 Sudoeste 22 Sudoeste 0 -- -- 38
2020-09-10 17:00:00 26.8 12 Sudoeste 21 Sudoeste 0 -- -- 40
2020-09-10 16:00:00 26.9 13 Sudoeste 23 Sur 0 -- -- 36
2020-09-10 15:00:00 29.1 12 Sur 26 Sur 0 -- -- 34
2020-09-10 14:00:00 28.1 12 Sudeste 26 Sur 0 -- -- 35
2020-09-10 13:00:00 27.9 9 Sur 20 Sur 0 -- -- 35
2020-09-10 12:00:00 26.7 6 Sudoeste 13 Sudoeste 0 -- -- 36
2020-09-10 11:00:00 26.4 3 Este 13 Este 0 -- -- 37
2020-09-10 10:00:00 22.9 9 Nordeste 14 Nordeste 0 -- -- 52
2020-09-10 09:00:00 20.5 7 Nordeste 11 Nordeste 0 -- -- 70
2020-09-10 08:00:00 17.6 6 Norte 15 Norte 0 -- -- 81
2020-09-10 07:00:00 17.4 9 Norte 14 Norte 0 -- -- 81
2020-09-10 06:00:00 18.1 7 Nordeste 12 Nordeste 0 -- -- 81
2020-09-10 05:00:00 18.7 5 Nordeste 10 Norte 0 -- -- 81
2020-09-10 04:00:00 18.3 5 Norte 10 Norte 0 -- -- 81
2020-09-10 03:00:00 18.2 2 Sudeste 7 Nordeste 0 -- -- 81
2020-09-10 02:00:00 19.2 5 Norte 9 Nordeste 0 -- -- 79
2020-09-10 01:00:00 19.8 6 Nordeste 9 Nordeste 0 -- -- 79
2020-09-10 00:00:00 19.7 4 Nordeste 12 Nordeste 0 -- -- 79
2020-09-09 23:00:00 20.3 5 Nordeste 9 Nordeste 0 -- -- 78
2020-09-09 22:00:00 20.4 6 Nordeste 10 Norte 0 -- -- 79
2020-09-09 21:00:00 20.6 5 Nordeste 10 Sur 0 -- -- 77
2020-09-09 20:00:00 21.8 6 Sur 12 Sur 0 -- -- 62
2020-09-09 19:00:00 23.3 6 Sur 16 Sur 0 -- -- 57
2020-09-09 18:00:00 23.7 8 Sur 19 Sudoeste 0 -- -- 54
2020-09-09 17:00:00 25.7 10 Sudeste 24 Sur 0 -- -- 50
2020-09-09 16:00:00 24.1 12 Sudeste 24 Sur 0 -- -- 54
2020-09-09 15:00:00 26.5 12 Sur 24 Sur 0 -- -- 44
2020-09-09 14:00:00 24.9 12 Sudeste 21 Sur 0 -- -- 46
2020-09-09 13:00:00 24.4 6 Este 13 Sudeste 0 -- -- 43
2020-09-09 12:00:00 22.7 8 Este 11 Este 0 -- -- 58
2020-09-09 11:00:00 22.7 3 Nordeste 9 Nordeste 0 -- -- 59
2020-09-09 10:00:00 22.3 4 Nordeste 8 Norte 0 -- -- 65
2020-09-09 09:00:00 19.3 5 Norte 11 Norte 0 -- -- 79
2020-09-09 08:00:00 18.3 4 Nordeste 10 Nordeste 0 -- -- 81
2020-09-09 07:00:00 17.9 8 Nordeste 11 Nordeste 0 -- -- 81
2020-09-09 06:00:00 17.8 6 Nordeste 13 Norte 0 -- -- 81
2020-09-09 05:00:00 17.3 8 Norte 14 Norte 0 -- -- 81
2020-09-09 04:00:00 17.7 7 Norte 13 Norte 0 -- -- 81
2020-09-09 03:00:00 18.2 7 Nordeste 12 Nordeste 0 -- -- 81
2020-09-09 02:00:00 18.6 3 Nordeste 11 Norte 0 -- -- 81
2020-09-09 01:00:00 19 6 Norte 11 Nordeste 0 -- -- 81
2020-09-09 00:00:00 19.4 6 Nordeste 10 Nordeste 0 -- -- 81
2020-09-08 23:00:00 19.4 6 Nordeste 13 Nordeste 0 -- -- 81
2020-09-08 22:00:00 19.2 7 Nordeste 22 Sudeste 0 -- -- 81
2020-09-08 21:00:00 22 12 Sudeste 23 Sudeste 0 -- -- 57
2020-09-08 20:00:00 24 5 Este 14 Este 0 -- -- 38
2020-09-08 19:00:00 24.5 6 Este 15 Sudeste 0 -- -- 35
2020-09-08 18:00:00 25.1 10 Sudeste 30 Sudeste 0 -- -- 32
2020-09-08 17:00:00 26 14 Sudeste 31 Sudeste 0 -- -- 27
2020-09-08 16:00:00 28 18 Sudeste 35 Sudeste 0 -- -- 24
2020-09-08 15:00:00 27.8 12 Sudeste 23 Nordeste 0 -- -- 25
2020-09-08 14:00:00 28.1 14 Este 27 Este 0 -- -- 24
2020-09-08 13:00:00 26.6 14 Este 26 Este 0 -- -- 28
2020-09-08 12:00:00 25.4 15 Este 24 Este 0 -- -- 32
2020-09-08 11:00:00 21.6 14 Nordeste 22 Este 0 -- -- 39
2020-09-08 10:00:00 19.2 12 Nordeste 21 Nordeste 0 -- -- 45
2020-09-08 09:00:00 18.3 10 Nordeste 17 Norte 0 -- -- 50
2020-09-08 08:00:00 15.2 12 Norte 18 Norte 0 -- -- 68
2020-09-08 07:00:00 14.8 11 Norte 16 Norte 0 -- -- 75
2020-09-08 06:00:00 14.9 10 Norte 16 Norte 0 -- -- 72
2020-09-08 05:00:00 15.9 6 Nordeste 11 Norte 0 -- -- 75
2020-09-08 04:00:00 16.5 8 Norte 18 Noroeste 0 -- -- 79
2020-09-08 03:00:00 17 9 Norte 19 Sudeste 0 -- -- 77
2020-09-08 02:00:00 17.3 11 Sudeste 28 Sudeste 0 -- -- 79
2020-09-08 01:00:00 19.5 8 Nordeste 11 Nordeste 0 -- -- 63
2020-09-08 00:00:00 18.5 8 Norte 15 Noroeste 0 -- -- 67
2020-09-07 23:00:00 18.6 9 Noroeste 14 Noroeste 0 -- -- 69
2020-09-07 22:00:00 20.5 7 Noroeste 10 Noroeste 0 -- -- 67
2020-09-07 21:00:00 20.6 6 Oeste 15 Sudoeste 0 -- -- 60
2020-09-07 20:00:00 21.9 8 Sudoeste 20 Sudoeste 0 -- -- 54
2020-09-07 19:00:00 23.2 11 Sur 22 Sudoeste 0 -- -- 46
2020-09-07 18:00:00 23.5 11 Sur 25 Sur 0 -- -- 40
2020-09-07 17:00:00 25.6 12 Sur 28 Sudeste 0 -- -- 35
2020-09-07 16:00:00 25.3 12 Sur 27 Sur 0 -- -- 34
2020-09-07 15:00:00 25.6 15 Sur 26 Sudeste 0 -- -- 30
2020-09-07 14:00:00 25 14 Sudeste 24 Sur 0 -- -- 30
2020-09-07 13:00:00 25.6 10 Sur 19 Sur 0 -- -- 31
2020-09-07 12:00:00 23.6 6 Nordeste 14 Este 0 -- -- 31
2020-09-07 11:00:00 24.1 4 Nordeste 15 Norte 0 -- -- 33
2020-09-07 10:00:00 21.7 6 Norte 16 Norte 0 -- -- 38
2020-09-07 09:00:00 20.2 2 Oeste 20 Nordeste 0 -- -- 39
2020-09-07 08:00:00 19.2 12 Norte 24 Noroeste 0 -- -- 41
2020-09-07 07:00:00 19.3 6 Nordeste 22 Norte 0 -- -- 43
2020-09-07 06:00:00 19.2 11 Norte 21 Norte 0 -- -- 45
2020-09-07 05:00:00 18.9 13 Norte 24 Norte 0 -- -- 48
2020-09-07 04:00:00 17.6 7 Norte 19 Norte 0 -- -- 61
2020-09-07 03:00:00 18 12 Norte 20 Norte 0.1 -- -- 64
2020-09-07 02:00:00 17.6 10 Norte 20 Noroeste 0 -- -- 78
2020-09-07 01:00:00 18.8 9 Norte 27 Noroeste 0.2 -- -- 69
2020-09-07 00:00:00 19.9 16 Noroeste 30 Noroeste 0.1 -- -- 69
2020-09-06 23:00:00 22.9 3 Oeste 9 Sudoeste 0 -- -- 68
2020-09-06 22:00:00 23.3 4 Sudoeste 9 Sudoeste 0 -- -- 61
2020-09-06 21:00:00 23.7 5 Sur 17 Sudoeste 0 -- -- 65
2020-09-06 20:00:00 25 10 Sudoeste 24 Sudoeste 0 -- -- 61
2020-09-06 19:00:00 26.5 15 Sudoeste 27 Sudoeste 0 -- -- 53
2020-09-06 18:00:00 27.4 14 Sur 28 Sur 0 -- -- 53
2020-09-06 17:00:00 27.2 12 Sur 28 Sur 0 -- -- 50
2020-09-06 16:00:00 -- -- -- -- -- -- -- -- --
2020-09-06 15:00:00 28.7 15 Sur 33 Sur 0 -- -- 40
2020-09-06 14:00:00 28.9 14 Sur 24 Sur 0 -- -- 35
2020-09-06 13:00:00 29.3 12 Sur 25 Sudeste 0 -- -- 33
2020-09-06 12:00:00 29.3 5 Sur 18 Sudeste 0 -- -- 32
2020-09-06 11:00:00 27.8 4 Nordeste 12 Nordeste 0 -- -- 34
2020-09-06 10:00:00 25.1 7 Nordeste 15 Nordeste 0 -- -- 41
2020-09-06 09:00:00 22.4 8 Nordeste 13 Nordeste 0 -- -- 52
2020-09-06 08:00:00 18.7 7 Norte 10 Norte 0 -- -- 77
2020-09-06 07:00:00 18.3 5 Nordeste 9 Norte 0 -- -- 77
2020-09-06 06:00:00 19 5 Norte 9 Norte 0 -- -- 78
2020-09-06 05:00:00 19.2 4 Nordeste 9 Norte 0 -- -- 81
2020-09-06 04:00:00 19.7 6 Norte 9 Nordeste 0 -- -- 79
2020-09-06 03:00:00 20.1 7 Nordeste 11 Nordeste 0 -- -- 77
2020-09-06 02:00:00 19.9 7 Nordeste 10 Norte 0 -- -- 78
2020-09-06 01:00:00 21 5 Norte 9 Norte 0 -- -- 77
2020-09-06 00:00:00 21.6 0 Calma 3 Oeste 0 -- -- 76
2020-09-05 23:00:00 22.3 0 Calma 7 Sudoeste 0 -- -- 74
2020-09-05 22:00:00 23 5 Sur 9 Sur 0 -- -- 73
2020-09-05 21:00:00 23.5 6 Sur 16 Sudoeste 0 -- -- 69
2020-09-05 20:00:00 24.8 12 Sudoeste 21 Sudoeste 0 -- -- 62
2020-09-05 19:00:00 26.3 12 Sudoeste 22 Sudoeste 0 -- -- 52
2020-09-05 18:00:00 27.1 11 Sudoeste 23 Sur 0 -- -- 47
2020-09-05 17:00:00 28.2 12 Sur 22 Sur 0 -- -- 44
2020-09-05 16:00:00 29.1 10 Sur 26 Sur 0 -- -- 43
2020-09-05 15:00:00 29 13 Sur 26 Sudoeste 0 -- -- 43
2020-09-05 14:00:00 29 12 Sur 24 Sur 0 -- -- 43
2020-09-05 13:00:00 28.4 12 Sur 21 Sur 0 -- -- 44
2020-09-05 12:00:00 28 8 Sudoeste 17 Sur 0 -- -- 45
2020-09-05 11:00:00 27.4 6 Sur 13 Sur 0 -- -- 45
2020-09-05 10:00:00 25.8 2 Nordeste 10 Norte 0 -- -- 41
2020-09-05 09:00:00 22 5 Norte 14 Norte 0 -- -- 48
2020-09-05 08:00:00 17.1 4 Norte 10 Norte 0 -- -- 71
2020-09-05 07:00:00 17 7 Norte 11 Nordeste 0 -- -- 68
2020-09-05 06:00:00 16.2 5 Nordeste 10 Norte 0 -- -- 70
2020-09-05 05:00:00 16.4 6 Nordeste 9 Nordeste 0 -- -- 76
2020-09-05 04:00:00 17 5 Nordeste 9 Nordeste 0 -- -- 76
2020-09-05 03:00:00 17.7 6 Nordeste 8 Nordeste 0 -- -- 77
2020-09-05 02:00:00 18.7 5 Nordeste 6 Norte 0 -- -- 77
2020-09-05 01:00:00 19.8 3 Nordeste 5 Norte 0 -- -- 76
2020-09-05 00:00:00 20.4 2 Nordeste 4 Nordeste 0 -- -- 76
2020-09-04 23:00:00 21.2 0 Calma 6 Oeste 0 -- -- 73
2020-09-04 22:00:00 22.3 3 Oeste 9 Sudoeste 0 -- -- 71
2020-09-04 21:00:00 22.9 6 Sur 15 Sudoeste 0 -- -- 66
2020-09-04 20:00:00 24.8 9 Sur 21 Sudoeste 0 -- -- 56
2020-09-04 19:00:00 26.2 13 Sudoeste 26 Sur 0 -- -- 49
2020-09-04 18:00:00 26.5 17 Sudoeste 31 Sudoeste 0 -- -- 47
2020-09-04 17:00:00 28 18 Sur 32 Sur 0 -- -- 43
2020-09-04 16:00:00 28.1 17 Sur 33 Sur 0 -- -- 43
2020-09-04 15:00:00 28.2 17 Sudoeste 30 Sur 0 -- -- 43
2020-09-04 14:00:00 28.6 15 Sur 30 Sur 0 -- -- 43
2020-09-04 13:00:00 28.7 12 Sur 27 Sur 0 -- -- 44
2020-09-04 12:00:00 28.3 11 Sur 23 Sur 0 -- -- 46
2020-09-04 11:00:00 26.5 11 Sudoeste 19 Sur 0 -- -- 49
2020-09-04 10:00:00 25.5 0 Calma 7 Norte 0 -- -- 41
2020-09-04 09:00:00 21.5 4 Nordeste 12 Nordeste 0 -- -- 48
2020-09-04 08:00:00 16.7 8 Nordeste 16 Norte 0 -- -- 65
2020-09-04 07:00:00 16.6 8 Nordeste 12 Norte 0 -- -- 65
2020-09-04 06:00:00 16.9 7 Nordeste 10 Nordeste 0 -- -- 72
2020-09-04 05:00:00 16.7 6 Nordeste 10 Norte 0 -- -- 76
2020-09-04 04:00:00 17.8 5 Nordeste 9 Norte 0 -- -- 75
2020-09-04 03:00:00 18.5 5 Norte 10 Noroeste 0 -- -- 75
2020-09-04 02:00:00 18.9 5 Norte 12 Norte 0 -- -- 75
2020-09-04 01:00:00 19.3 4 Nordeste 5 Nordeste 0 -- -- 74
2020-09-04 00:00:00 20.2 0 Calma 2 Sudeste 0 -- -- 71
2020-09-03 23:00:00 21.1 0 Calma 4 Sudeste 0 -- -- 67
2020-09-03 22:00:00 22.1 0 Calma 10 Sudoeste 0 -- -- 62
2020-09-03 21:00:00 23.4 8 Sudoeste 22 Sudoeste 0 -- -- 57
2020-09-03 20:00:00 25 14 Sudoeste 25 Sudoeste 0 -- -- 50
2020-09-03 19:00:00 26.4 13 Sudoeste 30 Sur 0 -- -- 46
2020-09-03 18:00:00 27.1 18 Sudoeste 34 Sudoeste 0 -- -- 45
2020-09-03 17:00:00 28.3 18 Sur 35 Sur 0 -- -- 45
2020-09-03 16:00:00 27.5 17 Sudoeste 32 Sur 0 -- -- 47
2020-09-03 15:00:00 27.8 14 Sur 30 Sudoeste 0 -- -- 46
2020-09-03 14:00:00 28.9 14 Sur 25 Sudoeste 0 -- -- 43
2020-09-03 13:00:00 27.8 12 Sur 26 Sur 0 -- -- 40
2020-09-03 12:00:00 28.8 6 Sur 14 Oeste 0 -- -- 35
2020-09-03 11:00:00 27.1 4 Este 12 Este 0 -- -- 33
2020-09-03 10:00:00 24 9 Nordeste 15 Nordeste 0 -- -- 38
2020-09-03 09:00:00 20.6 9 Nordeste 14 Norte 0 -- -- 56
2020-09-03 08:00:00 15.6 7 Nordeste 14 Norte 0 -- -- 68
2020-09-03 07:00:00 15.3 8 Norte 15 Noroeste 0 -- -- 77
2020-09-03 06:00:00 15.9 6 Norte 13 Norte 0 -- -- 77
2020-09-03 05:00:00 15.5 6 Norte 12 Norte 0 -- -- 72
2020-09-03 04:00:00 18 8 Norte 14 Norte 0 -- -- 67
2020-09-03 03:00:00 18.3 6 Norte 14 Norte 0 -- -- 73
2020-09-03 02:00:00 18.5 5 Nordeste 9 Norte 0 -- -- 76
2020-09-03 01:00:00 18.8 3 Nordeste 6 Norte 0 -- -- 76
2020-09-03 00:00:00 19.7 3 Nordeste 8 Norte 0 -- -- 72
2020-09-02 23:00:00 20.5 3 Norte 7 Norte 0 -- -- 69
2020-09-02 22:00:00 21.5 4 Oeste 10 Sudoeste 0 -- -- 63
2020-09-02 21:00:00 22.5 6 Sudoeste 19 Sudoeste 0 -- -- 57
2020-09-02 20:00:00 24 12 Sudoeste 23 Sudoeste 0 -- -- 51
2020-09-02 19:00:00 24.9 12 Sudoeste 24 Sudoeste 0 -- -- 49
2020-09-02 18:00:00 25.8 11 Sudoeste 24 Sur 0 -- -- 45
2020-09-02 17:00:00 26.7 11 Sur 24 Sudoeste 0 -- -- 43
2020-09-02 16:00:00 26.9 12 Sur 29 Sur 0 -- -- 40
2020-09-02 15:00:00 27 12 Sur 28 Sur 0 -- -- 37
2020-09-02 14:00:00 27 14 Sur 27 Sur 0 -- -- 35
2020-09-02 13:00:00 26.5 12 Sur 23 Sudeste 0 -- -- 35
2020-09-02 12:00:00 26.7 6 Sudoeste 13 Sur 0 -- -- 31
2020-09-02 11:00:00 26.3 4 Sur 9 Norte 0 -- -- 32
2020-09-02 10:00:00 25.3 4 Norte 12 Nordeste 0 -- -- 35
2020-09-02 09:00:00 21.4 5 Norte 13 Norte 0 -- -- 47
2020-09-02 08:00:00 17.1 9 Norte 13 Norte 0 -- -- 56
2020-09-02 07:00:00 17.4 8 Norte 13 Norte 0 -- -- 52
2020-09-02 06:00:00 17.9 8 Nordeste 18 Nordeste 0 -- -- 55
2020-09-02 05:00:00 18.4 10 Nordeste 14 Norte 0 -- -- 63
2020-09-02 04:00:00 18.3 10 Nordeste 15 Nordeste 0 -- -- 76
2020-09-02 03:00:00 17.1 6 Norte 13 Norte 0 -- -- 67
2020-09-02 02:00:00 17.1 6 Norte 12 Norte 0 -- -- 72
2020-09-02 01:00:00 18.1 9 Noroeste 13 Noroeste 0 -- -- 77
2020-09-02 00:00:00 19.2 4 Norte 9 Noroeste 0 -- -- 76
2020-09-01 23:00:00 21.7 7 Nordeste 11 Norte 0 -- -- 72
2020-09-01 22:00:00 20.4 5 Norte 9 Noroeste 0 -- -- 72
2020-09-01 21:00:00 20 7 Noroeste 15 Noroeste 0 -- -- 73
2020-09-01 20:00:00 20.6 4 Noroeste 20 Noroeste 0 -- -- 73
2020-09-01 19:00:00 22.5 7 Sudoeste 15 Sur 0 -- -- 73
2020-09-01 18:00:00 23.9 8 Sur 18 Sudoeste 0 -- -- 60
2020-09-01 17:00:00 25.8 10 Sur 19 Sur 0 -- -- 48
2020-09-01 16:00:00 27.6 9 Sur 22 Sudeste 0 -- -- 42
2020-09-01 15:00:00 28 11 Sudeste 23 Sudeste 0 -- -- 43
2020-09-01 14:00:00 26.9 6 Sur 18 Sur 0 -- -- 46
2020-09-01 13:00:00 25.6 9 Sur 16 Sur 0 -- -- 48
2020-09-01 12:00:00 25.5 3 Sudeste 12 Sudeste 0 -- -- 45
2020-09-01 11:00:00 25.1 4 Este 14 Nordeste 0 -- -- 40
2020-09-01 10:00:00 22.1 8 Nordeste 13 Nordeste 0 -- -- 48
2020-09-01 09:00:00 19.7 7 Norte 10 Norte 0 -- -- 57
2020-09-01 08:00:00 16.9 6 Norte 13 Noroeste 0 -- -- 66
2020-09-01 07:00:00 15.8 8 Norte 14 Norte 0 -- -- 69
2020-09-01 06:00:00 16.1 8 Norte 13 Norte 0 -- -- 68
2020-09-01 05:00:00 16.6 7 Nordeste 12 Norte 0 -- -- 68
2020-09-01 04:00:00 17.7 8 Nordeste 11 Norte 0 -- -- 64
2020-09-01 03:00:00 18.4 6 Noroeste 8 Noroeste 0 -- -- 61
2020-09-01 02:00:00 18.8 5 Noroeste 13 Oeste 0 -- -- 58
2020-09-01 01:00:00 19.7 8 Oeste 11 Oeste 0 -- -- 55
2020-09-01 00:00:00 20.6 4 Noroeste 9 Oeste 0 -- -- 56
2020-08-31 23:00:00 20.6 0 Calma 5 Noroeste 0 -- -- 53
2020-08-31 22:00:00 20.4 0 Calma 8 Sudoeste 0 -- -- 51
2020-08-31 21:00:00 21.8 4 Sudoeste 15 Sudoeste 0 -- -- 48
2020-08-31 20:00:00 22.4 9 Sudoeste 20 Sur 0 -- -- 45
2020-08-31 19:00:00 23.7 12 Sur 23 Sudoeste 0 -- -- 39
2020-08-31 18:00:00 24.4 12 Sudoeste 27 Sur 0 -- -- 35
2020-08-31 17:00:00 26 14 Sur 23 Sur 0 -- -- 34
2020-08-31 16:00:00 26.1 13 Sur 24 Sur 0 -- -- 34
2020-08-31 15:00:00 25 15 Sur 30 Sudeste 0 -- -- 34
2020-08-31 14:00:00 26.7 15 Sudeste 28 Sudeste 0 -- -- 31
2020-08-31 13:00:00 26.4 8 Sur 21 Sudeste 0 -- -- 30
2020-08-31 12:00:00 26.4 3 Norte 14 Nordeste 0 -- -- 29
2020-08-31 11:00:00 23.3 6 Nordeste 15 Nordeste 0 -- -- 32
2020-08-31 10:00:00 23.5 6 Nordeste 11 Nordeste 0 -- -- 35
2020-08-31 09:00:00 19.9 6 Nordeste 12 Norte 0 -- -- 41
2020-08-31 08:00:00 15.5 6 Norte 15 Noroeste 0 -- -- 48
2020-08-31 07:00:00 15.6 9 Norte 15 Norte 0 -- -- 49
2020-08-31 06:00:00 15.8 9 Norte 14 Norte 0 -- -- 48
2020-08-31 05:00:00 15.7 8 Norte 15 Norte 0 -- -- 49
2020-08-31 04:00:00 15.8 7 Norte 12 Norte 0 -- -- 48
2020-08-31 03:00:00 17.1 6 Norte 12 Norte 0 -- -- 45
2020-08-31 02:00:00 18.1 7 Norte 17 Noroeste 0 -- -- 41
2020-08-31 01:00:00 19 9 Norte 20 Noroeste 0 -- -- 40
2020-08-31 00:00:00 18.4 9 Noroeste 18 Norte 0 -- -- 42
2020-08-30 23:00:00 20.9 8 Norte 17 Norte 0 -- -- 39
2020-08-30 22:00:00 20.8 10 Norte 16 Norte 0 -- -- 38
2020-08-30 21:00:00 20.7 5 Oeste 9 Sudoeste 0 -- -- 43
2020-08-30 20:00:00 22.6 5 Sudoeste 18 Sudoeste 0 -- -- 37
2020-08-30 19:00:00 23.3 11 Sudoeste 23 Sur 0 -- -- 34
2020-08-30 18:00:00 24.9 10 Sur 24 Sudeste 0 -- -- 31
2020-08-30 17:00:00 27 11 Sur 23 Sur 0 -- -- 28
2020-08-30 16:00:00 27.5 8 Sudeste 24 Sur 0 -- -- 26
2020-08-30 15:00:00 26 12 Sudeste 24 Sudeste 0 -- -- 28
2020-08-30 14:00:00 26.6 6 Sudeste 22 Sudeste 0 -- -- 27
2020-08-30 13:00:00 25.7 8 Norte 24 Norte 0 -- -- 25
2020-08-30 12:00:00 25 10 Nordeste 30 Oeste 0 -- -- 28
2020-08-30 11:00:00 23.8 4 Este 24 Noroeste 0 -- -- 29
2020-08-30 10:00:00 22 17 Noroeste 31 Noroeste 0 -- -- 32
2020-08-30 09:00:00 19.8 8 Oeste 23 Noroeste 0 -- -- 36
2020-08-30 08:00:00 17.6 8 Noroeste 17 Sudoeste 0 -- -- 41
2020-08-30 07:00:00 16.9 9 Noroeste 21 Noroeste 0.1 -- -- 43
2020-08-30 06:00:00 15.8 6 Noroeste 13 Norte 0 -- -- 49
2020-08-30 05:00:00 17.1 6 Noroeste 18 Noroeste 0 -- -- 47
2020-08-30 04:00:00 16.6 5 Noroeste 27 Nordeste 0 -- -- 46
2020-08-30 03:00:00 17.9 8 Norte 17 Norte 0 -- -- 44
2020-08-30 02:00:00 18.9 8 Norte 43 Noroeste 0 -- -- 40
2020-08-30 01:00:00 19.7 19 Noroeste 36 Norte 0 -- -- 40
2020-08-30 00:00:00 19.2 7 Norte 27 Noroeste 0 -- -- 40
2020-08-29 23:00:00 20.7 8 Norte 29 Norte 0 -- -- 35
2020-08-29 22:00:00 21.9 15 Norte 37 Norte 0 -- -- 33
2020-08-29 21:00:00 20.1 0 Calma 10 Sudoeste 0 -- -- 57
2020-08-29 20:00:00 22 8 Sudoeste 16 Sudoeste 0 -- -- 45
2020-08-29 19:00:00 23.4 10 Sur 17 Sudoeste 0 -- -- 45
2020-08-29 18:00:00 22.2 8 Sur 21 Sudeste 0 -- -- 45
2020-08-29 17:00:00 25.1 11 Sur 27 Sudeste 0 -- -- 36
2020-08-29 16:00:00 22.3 10 Sudeste 18 Sur 0 -- -- 40
2020-08-29 15:00:00 23.7 10 Noroeste 23 Norte 0 -- -- 34
2020-08-29 14:00:00 25.9 5 Norte 19 Noroeste 0 -- -- 38
2020-08-29 13:00:00 25 8 Noroeste 23 Nordeste 0 -- -- 30
2020-08-29 12:00:00 25.3 10 Norte 23 Nordeste 0 -- -- 31
2020-08-29 11:00:00 23.2 3 Sudeste 13 Norte 0.1 -- -- 34
2020-08-29 10:00:00 22 4 Noroeste 10 Norte 0 -- -- 43
2020-08-29 09:00:00 20.9 2 Sudeste 5 Nordeste 0 -- -- 68
2020-08-29 08:00:00 19.7 0 Calma 9 Noroeste 0 -- -- 64
2020-08-29 07:00:00 21.2 4 Nordeste 10 Norte 0 -- -- 44
2020-08-29 06:00:00 21 6 Norte 15 Norte 0 -- -- 45
2020-08-29 05:00:00 20 8 Norte 15 Norte 0 -- -- 51
2020-08-29 04:00:00 20.7 7 Norte 20 Nordeste 0 -- -- 54
2020-08-29 03:00:00 21.3 9 Nordeste 16 Nordeste 0 -- -- 54
2020-08-29 02:00:00 21.9 9 Nordeste 16 Nordeste 0 -- -- 59
2020-08-29 01:00:00 22 9 Norte 14 Nordeste 0.1 -- -- 64
2020-08-29 00:00:00 22.1 10 Norte 18 Norte 0.1 -- -- 68
2020-08-28 23:00:00 24.3 12 Norte 24 Norte 0 -- -- 74
2020-08-28 22:00:00 25.6 3 Este 11 Nordeste 0 -- -- 79
2020-08-28 21:00:00 25.1 8 Nordeste 13 Nordeste 0 -- -- 79
2020-08-28 20:00:00 25.5 6 Oeste 19 Este 0.2 -- -- 79
2020-08-28 19:00:00 25.2 7 Sudeste 14 Oeste 0.2 -- -- 78
2020-08-28 18:00:00 26.6 6 Sudoeste 14 Sur 0 -- -- 70
2020-08-28 17:00:00 27.1 9 Sur 23 Sur 0 -- -- 70
2020-08-28 16:00:00 27.9 14 Sur 34 Sur 0 -- -- 63
2020-08-28 15:00:00 30.8 17 Sur 26 Sur 0 -- -- 50
2020-08-28 14:00:00 31.5 13 Sur 23 Sudeste 0 -- -- 48
2020-08-28 13:00:00 29.3 9 Sur 21 Sur 0 -- -- 50
2020-08-28 12:00:00 28.7 7 Sur 14 Sur 0 -- -- 56
2020-08-28 11:00:00 28.3 3 Este 10 Norte 0 -- -- 54
2020-08-28 10:00:00 27.5 6 Nordeste 10 Nordeste 0 -- -- 64
2020-08-28 09:00:00 25.6 5 Nordeste 8 Norte 0 -- -- 76
2020-08-28 08:00:00 23.7 6 Nordeste 9 Norte 0 -- -- 79
2020-08-28 07:00:00 22.6 6 Nordeste 9 Nordeste 0 -- -- 79
2020-08-28 06:00:00 22.8 6 Nordeste 10 Nordeste 0 -- -- 79
2020-08-28 05:00:00 23.4 5 Nordeste 7 Este 0 -- -- 79
2020-08-28 04:00:00 23.9 4 Nordeste 6 Norte 0 -- -- 79
2020-08-28 03:00:00 24.1 0 Calma 8 Sur 0 -- -- 79
2020-08-28 02:00:00 24.6 3 Sudeste 6 Sudeste 0 -- -- 79
2020-08-28 01:00:00 24.3 3 Este 5 Sudeste 0 -- -- 79
2020-08-28 00:00:00 26 3 Este 4 Este 0 -- -- 78
2020-08-27 23:00:00 26 0 Calma 2 Sur 0 -- -- 77
2020-08-27 22:00:00 26.2 0 Calma 7 Sur 0 -- -- 76
2020-08-27 21:00:00 26.6 4 Sur 13 Sur 0 -- -- 72
2020-08-27 20:00:00 27.3 8 Sur 14 Sur 0 -- -- 69
2020-08-27 19:00:00 28.3 9 Sur 18 Sudeste 0 -- -- 62
2020-08-27 18:00:00 28.9 10 Sur 23 Sur 0 -- -- 58
2020-08-27 17:00:00 31.3 13 Sur 28 Sur 0 -- -- 47
2020-08-27 16:00:00 31.8 16 Sur 32 Sur 0 -- -- 43
2020-08-27 15:00:00 31.2 13 Sur 27 Sudeste 0 -- -- 45
2020-08-27 14:00:00 31.6 15 Sur 28 Sudeste 0 -- -- 46
2020-08-27 13:00:00 31.3 13 Sur 23 Sur 0 -- -- 46
2020-08-27 12:00:00 30.9 6 Sudeste 16 Sudeste 0 -- -- 46
2020-08-27 11:00:00 30.2 7 Sudeste 13 Este 0 -- -- 47
2020-08-27 10:00:00 27.7 6 Este 12 Nordeste 0 -- -- 61
2020-08-27 09:00:00 25.7 6 Nordeste 13 Nordeste 0 -- -- 75
2020-08-27 08:00:00 22.6 6 Nordeste 10 Nordeste 0 -- -- 79
2020-08-27 07:00:00 22.1 7 Nordeste 11 Nordeste 0 -- -- 79
2020-08-27 06:00:00 22.6 8 Nordeste 11 Nordeste 0 -- -- 79
2020-08-27 05:00:00 22.7 6 Nordeste 9 Nordeste 0 -- -- 79
2020-08-27 04:00:00 22.7 6 Nordeste 10 Nordeste 0 -- -- 79
2020-08-27 03:00:00 22.6 5 Nordeste 6 Nordeste 0 -- -- 79
2020-08-27 02:00:00 23.3 4 Nordeste 5 Nordeste 0 -- -- 79
2020-08-27 01:00:00 24.1 3 Nordeste 4 Sudoeste 0 -- -- 78
2020-08-27 00:00:00 24.6 3 Sur 7 Sur 0 -- -- 77
2020-08-26 23:00:00 25.2 5 Sur 8 Sur 0 -- -- 78
2020-08-26 22:00:00 26.5 4 Sur 8 Sur 0 -- -- 76
2020-08-26 21:00:00 26.5 5 Sur 14 Sudoeste 0 -- -- 72
2020-08-26 20:00:00 27.5 8 Sur 19 Sur 0 -- -- 66
2020-08-26 19:00:00 28.8 9 Sur 22 Sur 0 -- -- 59
2020-08-26 18:00:00 29.7 9 Sur 22 Sur 0 -- -- 55
2020-08-26 17:00:00 31.2 10 Sur 23 Sur 0 -- -- 51
2020-08-26 16:00:00 31.3 11 Sur 27 Sur 0 -- -- 49
2020-08-26 15:00:00 31.3 13 Sur 26 Sur 0 -- -- 49
2020-08-26 14:00:00 30.1 9 Sur 23 Sur 0 -- -- 52
2020-08-26 13:00:00 31.3 8 Sur 18 Sur 0 -- -- 50
2020-08-26 12:00:00 28.7 5 Sudeste 13 Sur 0 -- -- 60
2020-08-26 11:00:00 28.6 5 Sur 13 Sur 0 -- -- 57
2020-08-26 10:00:00 26.7 3 Nordeste 9 Este 0 -- -- 69
2020-08-26 09:00:00 25.5 5 Nordeste 9 Norte 0 -- -- 73
2020-08-26 08:00:00 23.3 6 Norte 10 Nordeste 0 -- -- 79
2020-08-26 07:00:00 22.9 6 Nordeste 11 Nordeste 0 -- -- 79
2020-08-26 06:00:00 22.2 5 Nordeste 8 Norte 0 -- -- 79
2020-08-26 05:00:00 22.2 3 Nordeste 5 Norte 0 -- -- 79
2020-08-26 04:00:00 22.2 3 Norte 5 Noroeste 0 -- -- 79
2020-08-26 03:00:00 23.1 3 Sudeste 6 Sudeste 0 -- -- 79
2020-08-26 02:00:00 23.1 3 Sudeste 5 Sudeste 0 -- -- 79
2020-08-26 01:00:00 23.5 0 Calma 4 Sudoeste 0 -- -- 77
2020-08-26 00:00:00 23.9 3 Sur 8 Sur 0 -- -- 77
2020-08-25 23:00:00 24.5 5 Sur 9 Oeste 0 -- -- 74
2020-08-25 22:00:00 25.7 6 Sudoeste 15 Sudoeste 0 -- -- 69
2020-08-25 21:00:00 26.2 6 Sur 17 Sur 0 -- -- 67
2020-08-25 20:00:00 27.9 10 Sudoeste 22 Sur 0 -- -- 59
2020-08-25 19:00:00 28.8 13 Sudoeste 28 Sur 0 -- -- 52
2020-08-25 18:00:00 30.4 14 Sur 29 Sur 0 -- -- 46
2020-08-25 17:00:00 30.9 17 Sudoeste 30 Sur 0 -- -- 43
2020-08-25 16:00:00 32.3 14 Sudoeste 27 Sur 0 -- -- 43
2020-08-25 15:00:00 30.6 15 Sudoeste 29 Sur 0 -- -- 46
2020-08-25 14:00:00 30.9 14 Sur 24 Sudeste 0 -- -- 46
2020-08-25 13:00:00 30.2 10 Sudeste 22 Sur 0 -- -- 52
2020-08-25 12:00:00 30.4 6 Sur 17 Sur 0 -- -- 53
2020-08-25 11:00:00 28.7 7 Sur 19 Sur 0 -- -- 53
2020-08-25 10:00:00 28.6 6 Sudoeste 12 Sudoeste 0 -- -- 57
2020-08-25 09:00:00 26.1 0 Calma 9 Norte 0 -- -- 65
2020-08-25 08:00:00 22.1 4 Norte 8 Norte 0 -- -- 79
2020-08-25 07:00:00 22.3 0 Calma 7 Sudoeste 0 -- -- 79
2020-08-25 06:00:00 23 6 Oeste 9 Oeste 0 -- -- 79
2020-08-25 05:00:00 22.6 7 Sudoeste 9 Sudoeste 0 -- -- 79
2020-08-25 04:00:00 23 4 Sudoeste 7 Sudoeste 0 -- -- 78
2020-08-25 03:00:00 23.8 3 Sudoeste 10 Oeste 0 -- -- 77
2020-08-25 02:00:00 23.9 5 Oeste 11 Oeste 0 -- -- 77
2020-08-25 01:00:00 24.2 9 Oeste 13 Oeste 0 -- -- 76
2020-08-25 00:00:00 24.9 4 Oeste 9 Sudoeste 0 -- -- 73
2020-08-24 23:00:00 25.2 6 Sudoeste 10 Sudoeste 0 -- -- 73
2020-08-24 22:00:00 24.9 5 Sudoeste 11 Sudoeste 0 -- -- 71
2020-08-24 21:00:00 25.5 7 Sur 17 Sudoeste 0 -- -- 65
2020-08-24 20:00:00 26.4 10 Sudoeste 18 Sur 0 -- -- 57
2020-08-24 19:00:00 28.3 9 Sudoeste 18 Sudoeste 0 -- -- 46
2020-08-24 18:00:00 28.6 10 Sudoeste 24 Sur 0 -- -- 38
2020-08-24 17:00:00 29.4 10 Sur 23 Sur 0 -- -- 35
2020-08-24 16:00:00 30 12 Sur 23 Sur 0 -- -- 31
2020-08-24 15:00:00 30.1 14 Sur 31 Sudeste 0 -- -- 30
2020-08-24 14:00:00 30.4 14 Sur 27 Sur 0 -- -- 25
2020-08-24 13:00:00 30.8 14 Sur 23 Sur 0 -- -- 25
2020-08-24 12:00:00 31.1 4 Este 16 Nordeste 0 -- -- 21
2020-08-24 11:00:00 28.4 10 Este 17 Este 0 -- -- 25
2020-08-24 10:00:00 26.1 9 Nordeste 17 Nordeste 0 -- -- 30
2020-08-24 09:00:00 22.9 9 Nordeste 15 Nordeste 0 -- -- 41
2020-08-24 08:00:00 18.6 10 Nordeste 14 Nordeste 0 -- -- 57
2020-08-24 07:00:00 18 6 Norte 10 Nordeste 0 -- -- 60
2020-08-24 06:00:00 18.5 8 Norte 12 Nordeste 0 -- -- 73
2020-08-24 05:00:00 19 8 Nordeste 12 Nordeste 0 -- -- 78
2020-08-24 04:00:00 20.5 7 Norte 11 Nordeste 0 -- -- 63
2020-08-24 03:00:00 19.8 8 Norte 16 Norte 0 -- -- 74
2020-08-24 02:00:00 20.1 9 Noroeste 13 Noroeste 0 -- -- 76
2020-08-24 01:00:00 22.1 10 Noroeste 14 Noroeste 0 -- -- 73
2020-08-24 00:00:00 22 5 Nordeste 6 Nordeste 0 -- -- 73
2020-08-23 23:00:00 23.3 0 Calma 6 Sudoeste 0 -- -- 67
2020-08-23 22:00:00 23.9 3 Sur 9 Sudoeste 0 -- -- 64
2020-08-23 21:00:00 24.8 6 Sur 15 Sudoeste 0 -- -- 57
2020-08-23 20:00:00 26.6 7 Sudoeste 18 Sur 0 -- -- 48
2020-08-23 19:00:00 28 10 Sudoeste 21 Sur 0 -- -- 44
2020-08-23 18:00:00 28.3 11 Sur 21 Sur 0 -- -- 43
2020-08-23 17:00:00 27.1 12 Sur 21 Sur 0 -- -- 44
2020-08-23 16:00:00 27.6 10 Sur 17 Sur 0 -- -- 41
2020-08-23 15:00:00 27.7 6 Sudeste 13 Sudeste 0 -- -- 40
2020-08-23 14:00:00 27.5 6 Sudeste 10 Sur 0 -- -- 36
2020-08-23 13:00:00 26.7 3 Nordeste 10 Norte 0 -- -- 41
2020-08-23 12:00:00 26.5 3 Sur 12 Nordeste 0 -- -- 35
2020-08-23 11:00:00 26.2 6 Nordeste 12 Nordeste 0 -- -- 38
2020-08-23 10:00:00 24.6 6 Nordeste 12 Nordeste 0 -- -- 45
2020-08-23 09:00:00 24.3 6 Nordeste 13 Norte 0 -- -- 45
2020-08-23 08:00:00 22 8 Nordeste 13 Norte 0 -- -- 53
2020-08-23 07:00:00 22.2 9 Norte 14 Norte 0 -- -- 49
2020-08-23 06:00:00 22.7 6 Norte 9 Nordeste 0 -- -- 80
2020-08-23 05:00:00 22.8 5 Nordeste 8 Nordeste 0 -- -- 80
2020-08-23 04:00:00 23.4 4 Nordeste 9 Norte 0 -- -- 79
2020-08-23 03:00:00 23.9 3 Norte 10 Nordeste 0 -- -- 78
2020-08-23 02:00:00 24.3 6 Nordeste 10 Nordeste 0 -- -- 77
2020-08-23 01:00:00 25.7 0 Calma 9 Este 0 -- -- 77
2020-08-23 00:00:00 27.2 3 Nordeste 5 Nordeste 0 -- -- 77
2020-08-22 23:00:00 25.7 3 Sur 6 Sur 0 -- -- 76
2020-08-22 22:00:00 26 4 Sur 6 Sudoeste 0 -- -- 74
2020-08-22 21:00:00 27.1 5 Sudoeste 12 Sur 0 -- -- 69
2020-08-22 20:00:00 28.4 6 Sur 13 Sur 0 -- -- 58
2020-08-22 19:00:00 29.5 9 Sur 18 Sur 0 -- -- 53
2020-08-22 18:00:00 29.9 9 Sur 21 Sudoeste 0 -- -- 51
2020-08-22 17:00:00 31 11 Sur 28 Sur 0 -- -- 48
2020-08-22 16:00:00 32.2 13 Sur 30 Sur 0 -- -- 45
2020-08-22 15:00:00 31.9 15 Sur 30 Sudeste 0 -- -- 41
2020-08-22 14:00:00 32.7 19 Sur 32 Sur 0 -- -- 33
2020-08-22 13:00:00 32.4 16 Sudeste 28 Sudeste 0 -- -- 30
2020-08-22 12:00:00 31.4 16 Sudeste 27 Sudeste 0 -- -- 34
2020-08-22 11:00:00 31.6 3 Este 15 Nordeste 0 -- -- 36
2020-08-22 10:00:00 29.1 8 Este 13 Este 0 -- -- 41
2020-08-22 09:00:00 27 3 Nordeste 6 Nordeste 0 -- -- 72
2020-08-22 08:00:00 22.5 4 Nordeste 6 Nordeste 0 -- -- 79
2020-08-22 07:00:00 21.8 4 Nordeste 6 Nordeste 0 -- -- 79
2020-08-22 06:00:00 22.4 2 Nordeste 8 Norte 0 -- -- 79
2020-08-22 05:00:00 22.9 3 Nordeste 8 Nordeste 0 -- -- 79
2020-08-22 04:00:00 22.9 5 Nordeste 9 Nordeste 0 -- -- 79
2020-08-22 03:00:00 23.4 5 Nordeste 9 Nordeste 0 -- -- 79
2020-08-22 02:00:00 23.6 0 Calma 6 Norte 0 -- -- 79
2020-08-22 01:00:00 24.3 2 Sudeste 5 Sudeste 0 -- -- 79
2020-08-22 00:00:00 24.9 3 Sur 9 Sur 0 -- -- 79
2020-08-21 23:00:00 28.5 5 Sur 8 Sur 0 -- -- 78
2020-08-21 22:00:00 26 5 Sur 9 Sur 0 -- -- 75
2020-08-21 21:00:00 26.9 5 Sur 15 Sur 0 -- -- 70
2020-08-21 20:00:00 28.5 9 Sur 15 Sur 0 -- -- 60
2020-08-21 19:00:00 29.8 11 Sudoeste 19 Sudoeste 0 -- -- 51
2020-08-21 18:00:00 31 9 Sur 21 Sur 0 -- -- 47
2020-08-21 17:00:00 31.8 9 Sur 21 Sur 0 -- -- 45
2020-08-21 16:00:00 31.2 12 Sur 23 Sudoeste 0 -- -- 45
2020-08-21 15:00:00 31.9 12 Sur 25 Sur 0 -- -- 45
2020-08-21 14:00:00 31.2 12 Sur 24 Sur 0 -- -- 47
2020-08-21 13:00:00 32.3 8 Sur 23 Sur 0 -- -- 45
2020-08-21 12:00:00 29.6 3 Sudoeste 13 Sudeste 0 -- -- 49
2020-08-21 11:00:00 31.2 2 Sudoeste 8 Sudoeste 0 -- -- 44
2020-08-21 10:00:00 29.4 4 Nordeste 10 Nordeste 0 -- -- 52
2020-08-21 09:00:00 27.6 4 Norte 13 Noroeste 0 -- -- 54
2020-08-21 08:00:00 21.3 9 Norte 14 Norte 0 -- -- 69
2020-08-21 07:00:00 21.6 6 Norte 10 Norte 0 -- -- 75
2020-08-21 06:00:00 21.4 6 Norte 10 Norte 0 -- -- 76
2020-08-21 05:00:00 21.2 4 Nordeste 12 Norte 0 -- -- 75
2020-08-21 04:00:00 21.9 5 Norte 11 Norte 0 -- -- 77
2020-08-21 03:00:00 23.2 7 Norte 10 Nordeste 0 -- -- 78
2020-08-21 02:00:00 23.3 6 Nordeste 10 Nordeste 0 -- -- 79
2020-08-21 01:00:00 24.2 4 Nordeste 7 Nordeste 0 -- -- 79
2020-08-21 00:00:00 24.5 6 Nordeste 8 Nordeste 0 -- -- 78